Time;durP1;ratioP1;P1;durP2;ratioP2;P2;SDS_P1;SDS_P2;PMS_P1;PMS_P2;Temp;Humidity;BMP_temperature;BMP_pressure;BME280_temperature;BME280_humidity;BME280_pressure;Samples;Min_cycle;Max_cycle;Signal;HPM_P1;HPM_P2
2021/08/01 00:01:05;;;;;;;6.53;3.95;;;16.50;99.90;;;;;;5071497;28;20316;-66
2021/08/01 00:03:33;;;;;;;5.28;3.65;;;16.50;99.90;;;;;;5073158;28;20208;-66
2021/08/01 00:06:03;;;;;;;4.13;3.15;;;16.40;99.90;;;;;;5076187;28;20326;-64
2021/08/01 00:08:30;;;;;;;8.27;3.72;;;16.40;99.90;;;;;;5075830;28;20207;-64
2021/08/01 00:10:59;;;;;;;6.68;3.22;;;16.40;99.90;;;;;;5075666;28;20200;-64
2021/08/01 00:13:27;;;;;;;7.30;3.67;;;16.40;99.90;;;;;;5075719;28;20292;-64
2021/08/01 00:15:55;;;;;;;4.68;3.40;;;16.30;99.90;;;;;;5075542;28;20211;-66
2021/08/01 00:18:23;;;;;;;4.57;3.42;;;16.30;99.90;;;;;;5075107;28;20738;-64
2021/08/01 00:20:51;;;;;;;5.43;3.28;;;16.30;99.90;;;;;;5075519;28;20197;-63
2021/08/01 00:23:19;;;;;;;3.83;3.47;;;16.40;99.90;;;;;;5075430;28;20291;-63
2021/08/01 00:25:46;;;;;;;5.28;3.13;;;16.50;99.90;;;;;;5075202;28;20649;-65
2021/08/01 00:28:15;;;;;;;3.90;3.50;;;16.50;99.90;;;;;;5075364;28;20232;-64
2021/08/01 00:30:43;;;;;;;5.97;3.40;;;16.50;99.90;;;;;;5075272;28;20196;-63
2021/08/01 00:33:11;;;;;;;5.50;3.20;;;16.60;99.90;;;;;;5075089;28;20668;-64
2021/08/01 00:35:39;;;;;;;4.68;3.50;;;16.50;99.90;;;;;;5075034;28;20201;-64
2021/08/01 00:38:07;;;;;;;5.25;3.53;;;16.50;99.90;;;;;;5075221;28;20291;-64
2021/08/01 00:40:36;;;;;;;3.78;3.38;;;16.40;99.90;;;;;;5074846;28;20207;-66
2021/08/01 00:43:04;;;;;;;4.03;3.63;;;16.10;99.90;;;;;;5075127;28;20223;-63
2021/08/01 00:45:35;;;;;;;4.13;3.40;;;16.30;99.90;;;;;;5074761;28;20232;-65
2021/08/01 00:48:03;;;;;;;4.53;3.75;;;16.30;99.90;;;;;;5075119;28;20223;-63
2021/08/01 00:50:31;;;;;;;3.97;3.20;;;16.30;99.90;;;;;;5074223;28;20624;-64
2021/08/01 00:53:01;;;;;;;5.57;3.88;;;16.30;99.90;;;;;;5074628;28;20286;-64
2021/08/01 00:55:28;;;;;;;4.15;3.10;;;16.30;99.90;;;;;;5074511;28;20197;-64
2021/08/01 00:57:56;;;;;;;5.10;3.63;;;16.20;99.90;;;;;;5074858;28;20235;-64
2021/08/01 01:00:44;;;;;;;6.38;3.50;;;16.20;99.90;;;;;;5074887;28;20200;-64
2021/08/01 01:03:17;;;;;;;4.78;3.95;;;16.20;99.90;;;;;;5074678;28;20303;-64
2021/08/01 01:05:52;;;;;;;5.45;3.42;;;16.30;99.90;;;;;;5074766;28;20189;-64
2021/08/01 01:08:30;;;;;;;6.95;3.90;;;16.20;99.90;;;;;;5074962;28;20193;-64
2021/08/01 01:11:01;;;;;;;7.32;3.40;;;16.20;99.90;;;;;;5074367;28;20637;-64
2021/08/01 01:13:33;;;;;;;5.07;3.88;;;16.20;99.90;;;;;;5074428;28;20276;-65
2021/08/01 01:16:01;;;;;;;5.18;3.70;;;16.20;99.90;;;;;;5074391;28;20192;-65
2021/08/01 01:18:34;;;;;;;7.50;3.50;;;16.20;99.90;;;;;;5074321;28;20204;-64
2021/08/01 01:21:24;;;;;;;5.15;3.30;;;16.20;99.90;;;;;;5074237;28;20280;-64
2021/08/01 01:23:57;;;;;;;3.88;3.15;;;16.20;99.90;;;;;;5074139;28;20217;-64
2021/08/01 01:26:32;;;;;;;3.60;3.25;;;16.20;99.90;;;;;;5074361;28;20177;-65
2021/08/01 01:29:19;;;;;;;5.07;3.53;;;16.20;99.90;;;;;;5073966;28;20789;-64
2021/08/01 01:32:10;;;;;;;4.10;3.60;;;16.30;99.90;;;;;;5074243;28;20189;-65
2021/08/01 01:34:55;;;;;;;6.63;3.40;;;16.30;99.90;;;;;;5071785;28;20279;-64
2021/08/01 01:37:24;;;;;;;4.20;3.28;;;16.30;99.90;;;;;;5080062;28;20284;-64
2021/08/01 01:39:53;;;;;;;5.07;3.17;;;16.30;99.90;;;;;;5079092;28;20755;-64
2021/08/01 01:42:22;;;;;;;4.65;3.28;;;16.40;99.90;;;;;;5074322;28;20307;-64
2021/08/01 01:44:51;;;;;;;6.97;3.75;;;16.30;99.90;;;;;;5073531;28;20264;-65
2021/08/01 01:47:20;;;;;;;7.28;3.92;;;16.30;99.90;;;;;;5073972;28;20295;-64
2021/08/01 01:49:49;;;;;;;5.15;3.33;;;16.30;99.90;;;;;;5073333;28;20200;-64
2021/08/01 01:52:19;;;;;;;5.65;3.65;;;16.30;99.90;;;;;;5073773;28;20192;-64
2021/08/01 01:54:48;;;;;;;8.68;4.47;;;16.30;99.90;;;;;;5073710;28;20207;-64
2021/08/01 01:57:17;;;;;;;5.00;3.90;;;16.20;99.90;;;;;;5073677;28;20581;-65
2021/08/01 01:59:45;;;;;;;7.53;3.78;;;16.20;99.90;;;;;;5073456;28;20223;-63
2021/08/01 02:02:14;;;;;;;5.00;3.50;;;16.20;99.90;;;;;;5073536;28;20220;-63
2021/08/01 02:04:42;;;;;;;5.15;3.55;;;16.20;99.90;;;;;;5073056;28;20653;-63
2021/08/01 02:07:10;;;;;;;4.57;3.83;;;16.20;99.90;;;;;;5073377;28;20201;-65
2021/08/01 02:09:46;;;;;;;4.05;3.33;;;16.20;99.90;;;;;;5073444;28;20307;-64
2021/08/01 02:12:20;;;;;;;4.55;3.85;;;16.20;99.90;;;;;;5073186;28;20181;-64
2021/08/01 02:14:55;;;;;;;6.93;3.50;;;16.30;99.90;;;;;;5073205;28;20181;-63
2021/08/01 02:17:29;;;;;;;4.38;3.75;;;16.20;99.90;;;;;;5072928;28;20610;-64
2021/08/01 02:20:00;;;;;;;4.45;3.72;;;16.20;99.90;;;;;;5073125;28;20184;-64
2021/08/01 02:22:29;;;;;;;4.25;3.85;;;16.20;99.90;;;;;;5073068;28;20201;-63
2021/08/01 02:24:58;;;;;;;4.28;3.30;;;16.20;99.90;;;;;;5072439;28;20531;-64
2021/08/01 02:27:30;;;;;;;5.00;3.58;;;16.20;99.90;;;;;;5072193;28;20724;-64
2021/08/01 02:30:01;;;;;;;4.30;3.13;;;16.20;99.90;;;;;;5072621;28;20671;-64
2021/08/01 02:32:30;;;;;;;6.65;3.58;;;16.30;99.90;;;;;;5072605;28;20201;-63
2021/08/01 02:35:00;;;;;;;3.97;3.58;;;16.30;99.90;;;;;;5072776;28;20197;-64
2021/08/01 02:37:29;;;;;;;4.55;3.10;;;16.30;99.90;;;;;;5072796;28;20289;-63
2021/08/01 02:39:57;;;;;;;5.18;3.40;;;16.30;99.90;;;;;;5072523;28;20669;-64
2021/08/01 02:42:27;;;;;;;6.40;3.40;;;16.20;99.90;;;;;;5072732;28;20219;-64
2021/08/01 02:44:59;;;;;;;4.68;3.45;;;16.10;99.90;;;;;;5072192;28;20233;-64
2021/08/01 02:47:30;;;;;;;4.32;3.22;;;16.20;99.90;;;;;;5072681;28;20180;-64
2021/08/01 02:50:00;;;;;;;4.47;3.60;;;16.10;99.90;;;;;;5072470;28;20188;-64
2021/08/01 02:52:32;;;;;;;4.60;3.30;;;16.20;99.90;;;;;;5072862;28;20197;-64
2021/08/01 02:55:04;;;;;;;3.50;3.20;;;16.20;99.90;;;;;;5072649;28;20184;-64
2021/08/01 02:57:35;;;;;;;4.97;3.47;;;16.30;99.90;;;;;;5072501;28;20284;-65
2021/08/01 03:00:05;;;;;;;4.18;3.72;;;16.30;99.90;;;;;;5072446;28;20564;-63
2021/08/01 03:02:33;;;;;;;4.40;3.50;;;16.30;99.90;;;;;;5072159;28;20686;-64
2021/08/01 03:05:05;;;;;;;3.72;3.25;;;16.30;99.90;;;;;;5072192;28;20211;-63
2021/08/01 03:07:33;;;;;;;4.20;3.33;;;16.30;99.90;;;;;;5072412;28;20189;-64
2021/08/01 03:10:01;;;;;;;3.80;3.50;;;16.30;99.90;;;;;;5071870;28;20211;-64
2021/08/01 03:12:29;;;;;;;5.93;3.60;;;16.30;99.90;;;;;;5071993;28;20228;-64
2021/08/01 03:14:58;;;;;;;4.50;3.50;;;16.30;99.90;;;;;;5072109;28;20223;-64
2021/08/01 03:17:26;;;;;;;4.00;3.60;;;16.30;99.90;;;;;;5072248;28;20207;-64
2021/08/01 03:19:53;;;;;;;6.97;3.65;;;16.20;99.90;;;;;;5072056;28;20203;-64
2021/08/01 03:22:21;;;;;;;5.57;3.88;;;16.20;99.90;;;;;;5072158;28;20200;-63
2021/08/01 03:24:49;;;;;;;3.58;3.28;;;16.20;99.90;;;;;;5071867;28;20609;-64
2021/08/01 03:27:17;;;;;;;4.75;3.88;;;16.20;99.90;;;;;;5071995;28;20197;-63
2021/08/01 03:29:45;;;;;;;4.30;3.90;;;16.20;99.90;;;;;;5071679;28;20205;-64
2021/08/01 03:32:14;;;;;;;6.55;3.70;;;16.20;99.90;;;;;;5072110;28;20222;-64
2021/08/01 03:34:42;;;;;;;5.05;3.80;;;16.20;99.90;;;;;;5072001;28;20286;-64
2021/08/01 03:37:09;;;;;;;4.10;3.70;;;16.20;99.90;;;;;;5071447;28;20291;-64
2021/08/01 03:39:38;;;;;;;4.50;3.80;;;16.10;99.90;;;;;;5071659;28;20207;-64
2021/08/01 03:42:06;;;;;;;3.72;3.42;;;16.20;99.90;;;;;;5071853;28;20197;-64
2021/08/01 03:44:34;;;;;;;4.68;4.00;;;16.20;99.90;;;;;;5071446;28;20233;-63
2021/08/01 03:47:02;;;;;;;3.97;3.60;;;16.20;99.90;;;;;;5071921;28;20211;-64
2021/08/01 03:49:31;;;;;;;5.65;3.65;;;16.20;99.90;;;;;;5071821;28;20196;-63
2021/08/01 03:51:59;;;;;;;3.95;3.38;;;16.20;99.90;;;;;;5071829;28;20201;-63
2021/08/01 03:54:27;;;;;;;4.55;3.95;;;16.20;99.90;;;;;;5071983;28;20220;-65
2021/08/01 03:56:55;;;;;;;4.45;3.22;;;16.20;99.90;;;;;;5071755;28;20200;-63
2021/08/01 03:59:23;;;;;;;4.78;3.35;;;16.20;99.90;;;;;;5071150;28;20296;-63
2021/08/01 04:01:50;;;;;;;4.13;3.45;;;16.30;99.90;;;;;;5071391;28;20640;-64
2021/08/01 04:04:18;;;;;;;4.10;3.38;;;16.30;99.90;;;;;;5071695;28;20232;-64
2021/08/01 04:06:47;;;;;;;3.55;3.25;;;16.30;99.90;;;;;;5071637;28;20224;-65
2021/08/01 04:09:15;;;;;;;3.60;3.30;;;16.30;99.90;;;;;;5071699;28;20295;-64
2021/08/01 04:11:44;;;;;;;6.68;3.28;;;16.30;99.90;;;;;;5071461;28;20244;-64
2021/08/01 04:14:12;;;;;;;4.07;3.53;;;16.30;99.90;;;;;;5071153;28;20228;-64
2021/08/01 04:16:40;;;;;;;5.75;3.40;;;16.30;99.90;;;;;;5071182;28;20204;-64
2021/08/01 04:19:08;;;;;;;4.00;3.40;;;16.30;99.90;;;;;;5071653;28;20209;-65
2021/08/01 04:21:37;;;;;;;4.20;3.47;;;16.40;99.90;;;;;;5071671;28;20211;-64
2021/08/01 04:24:07;;;;;;;5.05;3.20;;;16.40;99.90;;;;;;5071179;28;20220;-64
2021/08/01 04:26:35;;;;;;;5.55;3.38;;;16.30;99.90;;;;;;5071602;28;20197;-63
2021/08/01 04:29:03;;;;;;;4.20;3.80;;;16.40;99.90;;;;;;5071572;28;20207;-64
2021/08/01 04:31:31;;;;;;;4.18;3.70;;;16.40;99.90;;;;;;5071565;28;20299;-65
2021/08/01 04:33:59;;;;;;;5.32;3.60;;;16.40;99.90;;;;;;5071344;28;20206;-64
2021/08/01 04:36:26;;;;;;;3.80;3.10;;;16.40;99.90;;;;;;5071201;28;20288;-65
2021/08/01 04:38:54;;;;;;;3.95;3.20;;;16.40;99.90;;;;;;5071176;28;20205;-65
2021/08/01 04:41:23;;;;;;;4.55;3.45;;;16.30;99.90;;;;;;5071477;28;20197;-64
2021/08/01 04:43:51;;;;;;;4.80;3.75;;;16.40;99.90;;;;;;5071063;28;20228;-64
2021/08/01 04:46:19;;;;;;;4.38;3.67;;;16.40;99.90;;;;;;5071426;28;20300;-64
2021/08/01 04:48:47;;;;;;;4.22;3.47;;;16.50;99.90;;;;;;5071269;28;20665;-64
2021/08/01 04:51:15;;;;;;;5.18;3.60;;;16.50;99.90;;;;;;5074500;28;20205;-64
2021/08/01 04:53:42;;;;;;;5.35;3.70;;;16.50;99.90;;;;;;5074836;28;20219;-64
2021/08/01 04:56:11;;;;;;;4.45;3.67;;;16.50;99.90;;;;;;5074890;28;20601;-64
2021/08/01 04:58:40;;;;;;;5.13;3.50;;;16.50;99.90;;;;;;5074527;28;20296;-64
2021/08/01 05:01:12;;;;;;;5.10;3.78;;;16.50;99.90;;;;;;5074510;28;20296;-64
2021/08/01 05:03:40;;;;;;;4.63;3.88;;;16.60;99.90;;;;;;5074725;28;20201;-64
2021/08/01 05:06:10;;;;;;;5.78;3.50;;;16.60;99.90;;;;;;5074474;28;20207;-65
2021/08/01 05:08:38;;;;;;;4.32;3.92;;;16.60;99.90;;;;;;5074383;28;20666;-65
2021/08/01 05:11:06;;;;;;;5.00;3.25;;;16.70;99.90;;;;;;5074908;28;20209;-63
2021/08/01 05:13:34;;;;;;;6.95;3.55;;;16.70;99.90;;;;;;5075137;28;20243;-65
2021/08/01 05:16:03;;;;;;;4.57;3.78;;;16.80;99.90;;;;;;5075010;28;20196;-64
2021/08/01 05:18:31;;;;;;;5.95;4.38;;;16.90;99.90;;;;;;5075090;28;20227;-65
2021/08/01 05:20:59;;;;;;;4.82;4.15;;;16.90;99.90;;;;;;5074550;28;20200;-65
2021/08/01 05:23:26;;;;;;;5.03;4.47;;;17.00;99.90;;;;;;5074740;28;20295;-64
2021/08/01 05:25:54;;;;;;;4.78;3.92;;;17.10;99.90;;;;;;5074556;28;20239;-64
2021/08/01 05:28:22;;;;;;;4.82;4.30;;;17.10;99.90;;;;;;5074842;28;20197;-63
2021/08/01 05:30:50;;;;;;;6.53;4.10;;;17.20;99.90;;;;;;5074747;28;20548;-65
2021/08/01 05:33:19;;;;;;;4.40;4.00;;;17.20;99.90;;;;;;5074559;28;20296;-65
2021/08/01 05:35:46;;;;;;;4.32;3.80;;;17.30;99.90;;;;;;5074525;28;20201;-65
2021/08/01 05:38:14;;;;;;;5.55;4.07;;;17.30;99.90;;;;;;5074627;28;20318;-64
2021/08/01 05:40:44;;;;;;;5.95;4.00;;;17.40;99.90;;;;;;5074643;28;20200;-65
2021/08/01 05:43:12;;;;;;;4.95;4.30;;;17.70;99.90;;;;;;5074333;28;20224;-65
2021/08/01 05:45:40;;;;;;;5.15;4.20;;;17.70;99.90;;;;;;5074402;28;20216;-66
2021/08/01 05:48:09;;;;;;;6.85;4.25;;;17.70;99.90;;;;;;5074535;28;20201;-65
2021/08/01 05:50:38;;;;;;;6.55;3.97;;;17.70;99.90;;;;;;5073949;28;20688;-64
2021/08/01 05:53:06;;;;;;;5.60;4.10;;;17.70;99.90;;;;;;5074437;28;20197;-64
2021/08/01 05:55:34;;;;;;;4.75;4.35;;;17.80;99.90;;;;;;5074398;28;20203;-64
2021/08/01 05:58:02;;;;;;;4.70;3.97;;;17.90;99.90;;;;;;5074388;28;20200;-64
2021/08/01 06:00:30;;;;;;;4.55;3.95;;;18.00;99.90;;;;;;5073215;28;20209;-63
2021/08/01 06:02:58;;;;;;;9.35;4.78;;;18.00;99.90;;;;;;5074068;28;20204;-65
2021/08/01 06:05:25;;;;;;;5.30;4.80;;;18.10;99.90;;;;;;5073860;28;20652;-66
2021/08/01 06:07:55;;;;;;;5.38;4.90;;;18.00;99.90;;;;;;5074107;28;20209;-65
2021/08/01 06:10:22;;;;;;;6.35;4.57;;;18.00;99.90;;;;;;5073647;28;20207;-65
2021/08/01 06:12:50;;;;;;;5.03;4.53;;;18.10;99.90;;;;;;5074059;28;20304;-64
2021/08/01 06:15:18;;;;;;;4.85;4.40;;;18.10;99.90;;;;;;5073496;28;20617;-64
2021/08/01 06:17:46;;;;;;;6.43;4.05;;;18.10;99.90;;;;;;5073918;28;20200;-64
2021/08/01 06:20:14;;;;;;;5.22;4.40;;;18.20;99.90;;;;;;5073795;28;20284;-65
2021/08/01 06:22:42;;;;;;;5.80;4.25;;;18.30;99.90;;;;;;5073490;28;20286;-64
2021/08/01 06:25:11;;;;;;;4.72;4.03;;;18.30;99.90;;;;;;5073451;28;20572;-64
2021/08/01 06:27:39;;;;;;;6.75;4.70;;;18.30;99.90;;;;;;5073626;28;20317;-64
2021/08/01 06:30:09;;;;;;;4.90;4.40;;;18.30;99.90;;;;;;5074069;28;20201;-64
2021/08/01 06:32:37;;;;;;;4.57;4.00;;;18.30;99.90;;;;;;5074670;28;20262;-64
2021/08/01 06:35:07;;;;;;;4.47;4.07;;;18.40;99.90;;;;;;5074514;28;20284;-65
2021/08/01 06:37:35;;;;;;;5.95;4.50;;;18.40;99.90;;;;;;5073603;28;20996;-66
2021/08/01 06:40:03;;;;;;;7.13;4.43;;;18.50;99.90;;;;;;5073570;28;20200;-64
2021/08/01 06:42:32;;;;;;;5.90;4.68;;;18.70;99.90;;;;;;5073593;28;20219;-64
2021/08/01 06:45:00;;;;;;;4.97;4.20;;;18.70;99.90;;;;;;5072851;28;20331;-64
2021/08/01 06:47:28;;;;;;;5.10;4.18;;;18.80;99.90;;;;;;5073351;28;20204;-65
2021/08/01 06:49:56;;;;;;;5.95;4.10;;;18.90;99.90;;;;;;5073001;28;20304;-64
2021/08/01 06:52:37;;;;;;;4.82;3.80;;;19.10;99.90;;;;;;5072945;28;20248;-65
2021/08/01 06:55:07;;;;;;;3.72;3.35;;;19.20;99.90;;;;;;5073018;28;20201;-65
2021/08/01 06:57:36;;;;;;;3.80;3.40;;;19.30;99.90;;;;;;5072947;28;20212;-65
2021/08/01 07:00:05;;;;;;;5.25;4.15;;;19.30;99.90;;;;;;5072970;28;20540;-64
2021/08/01 07:02:34;;;;;;;4.35;3.75;;;19.30;99.90;;;;;;5072886;28;20297;-66
2021/08/01 07:05:03;;;;;;;5.90;3.45;;;19.40;99.90;;;;;;5072722;28;20240;-65
2021/08/01 07:07:31;;;;;;;5.60;4.07;;;19.50;99.90;;;;;;5072698;28;20268;-65
2021/08/01 07:09:59;;;;;;;4.88;3.70;;;19.40;99.90;;;;;;5072843;28;20232;-65
2021/08/01 07:12:27;;;;;;;5.03;3.70;;;19.40;99.90;;;;;;5072326;28;20200;-65
2021/08/01 07:14:56;;;;;;;4.85;3.78;;;19.60;99.90;;;;;;5072800;28;20287;-64
2021/08/01 07:17:24;;;;;;;4.28;3.88;;;19.60;99.90;;;;;;5072713;28;20638;-64
2021/08/01 07:19:51;;;;;;;6.70;3.88;;;19.60;99.90;;;;;;5072765;28;20220;-64
2021/08/01 07:22:19;;;;;;;4.50;3.90;;;19.60;99.90;;;;;;5072363;28;20755;-66
2021/08/01 07:24:47;;;;;;;4.25;3.85;;;19.70;99.90;;;;;;5072538;28;20211;-64
2021/08/01 07:27:18;;;;;;;3.90;3.47;;;19.60;99.90;;;;;;5072741;28;20591;-63
2021/08/01 07:29:46;;;;;;;5.43;4.00;;;19.60;99.90;;;;;;5072386;28;20205;-63
2021/08/01 07:32:15;;;;;;;4.80;3.97;;;19.80;99.90;;;;;;5072128;28;20582;-64
2021/08/01 07:34:42;;;;;;;4.53;3.58;;;19.70;99.90;;;;;;5071750;28;20199;-65
2021/08/01 07:37:11;;;;;;;4.72;3.50;;;19.70;99.90;;;;;;5071595;28;20238;-66
2021/08/01 07:39:42;;;;;;;4.63;4.10;;;19.80;99.90;;;;;;5071944;28;20188;-64
2021/08/01 07:42:10;;;;;;;4.72;4.30;;;19.70;99.90;;;;;;5071798;28;20249;-65
2021/08/01 07:44:46;;;;;;;6.28;3.65;;;19.70;99.90;;;;;;5071911;28;20232;-65
2021/08/01 07:47:17;;;;;;;4.32;3.95;;;19.80;99.90;;;;;;5072424;28;20216;-65
2021/08/01 07:49:45;;;;;;;4.15;3.67;;;19.90;99.90;;;;;;5069258;28;20192;-65
2021/08/01 07:52:13;;;;;;;4.15;3.75;;;19.90;99.90;;;;;;5052291;28;20244;-65
2021/08/01 07:54:41;;;;;;;4.20;3.80;;;20.00;99.90;;;;;;5052164;28;20203;-64
2021/08/01 07:57:22;;;;;;;3.83;3.35;;;20.00;99.90;;;;;;5052335;28;20649;-65
2021/08/01 07:59:50;;;;;;;4.53;3.50;;;20.20;99.90;;;;;;5052015;28;20276;-65
2021/08/01 08:02:19;;;;;;;4.60;3.75;;;20.30;99.90;;;;;;5051910;28;20880;-66
2021/08/01 08:04:47;;;;;;;5.38;4.00;;;20.40;99.90;;;;;;5052056;28;20209;-65
2021/08/01 08:07:15;;;;;;;4.13;3.55;;;20.60;99.90;;;;;;5052205;28;20224;-64
2021/08/01 08:09:43;;;;;;;3.78;3.47;;;20.60;99.90;;;;;;5052227;28;20239;-65
2021/08/01 08:12:11;;;;;;;3.40;3.10;;;20.70;99.90;;;;;;5052154;28;20223;-64
2021/08/01 08:14:40;;;;;;;5.63;3.58;;;20.90;99.90;;;;;;5051819;28;20695;-65
2021/08/01 08:17:08;;;;;;;4.07;3.67;;;20.90;99.90;;;;;;5052380;28;20236;-63
2021/08/01 08:19:38;;;;;;;4.30;3.90;;;20.90;99.90;;;;;;5052177;28;20674;-65
2021/08/01 08:22:09;;;;;;;3.72;3.42;;;20.80;99.90;;;;;;5052414;28;20566;-65
2021/08/01 08:24:37;;;;;;;6.75;3.90;;;20.90;99.90;;;;;;5053819;28;20285;-66
2021/08/01 08:27:05;;;;;;;4.55;3.60;;;20.60;99.90;;;;;;5055815;28;20329;-65
2021/08/01 08:29:34;;;;;;;3.95;3.53;;;20.60;99.90;;;;;;5055863;28;20208;-63
2021/08/01 08:32:01;;;;;;;3.50;2.97;;;20.60;99.90;;;;;;5055771;28;20206;-64
2021/08/01 08:34:29;;;;;;;3.28;2.95;;;20.80;99.90;;;;;;5055605;28;20672;-65
2021/08/01 08:37:00;;;;;;;2.95;2.65;;;20.90;99.90;;;;;;5065592;28;20724;-64
2021/08/01 08:39:29;;;;;;;3.30;2.90;;;20.90;99.90;;;;;;5075678;28;20219;-64
2021/08/01 08:41:59;;;;;;;3.08;2.67;;;21.00;99.90;;;;;;5075574;28;20213;-66
2021/08/01 08:44:27;;;;;;;3.30;2.88;;;20.90;99.90;;;;;;5075203;28;20327;-65
2021/08/01 08:46:56;;;;;;;4.47;3.20;;;21.00;99.90;;;;;;5075562;28;20317;-64
2021/08/01 08:49:25;;;;;;;3.92;3.30;;;20.90;99.90;;;;;;5075203;28;20848;-65
2021/08/01 08:51:54;;;;;;;3.80;3.38;;;20.80;99.90;;;;;;5075499;28;20283;-65
2021/08/01 08:54:32;;;;;;;3.35;3.05;;;20.70;99.90;;;;;;5075449;28;20203;-64
2021/08/01 08:57:02;;;;;;;4.25;3.42;;;20.80;99.90;;;;;;5075482;28;20263;-64
2021/08/01 08:59:30;;;;;;;3.55;3.17;;;20.80;99.90;;;;;;5075155;28;20704;-64
2021/08/01 09:01:58;;;;;;;4.28;2.78;;;20.90;99.90;;;;;;5075148;28;20303;-65
2021/08/01 09:04:26;;;;;;;3.45;3.15;;;20.90;99.90;;;;;;5075295;28;20299;-65
2021/08/01 09:06:56;;;;;;;4.07;3.10;;;20.80;99.90;;;;;;5075258;28;20220;-64
2021/08/01 09:09:25;;;;;;;3.88;3.20;;;20.90;99.90;;;;;;5075133;28;20656;-63
2021/08/01 09:11:53;;;;;;;6.10;3.00;;;21.00;99.90;;;;;;5075253;28;20207;-64
2021/08/01 09:14:22;;;;;;;2.88;2.67;;;20.90;99.90;;;;;;5074776;28;20732;-64
2021/08/01 09:16:51;;;;;;;3.28;2.97;;;21.00;99.90;;;;;;5074889;28;20209;-63
2021/08/01 09:19:26;;;;;;;3.35;2.97;;;21.00;99.90;;;;;;5074785;28;20205;-64
2021/08/01 09:21:55;;;;;;;3.13;2.60;;;21.10;99.90;;;;;;5074900;28;20349;-64
2021/08/01 09:24:34;;;;;;;2.92;2.72;;;21.30;99.90;;;;;;5074643;28;20645;-64
2021/08/01 09:27:03;;;;;;;3.90;2.92;;;21.50;99.90;;;;;;5074815;28;20552;-64
2021/08/01 09:29:31;;;;;;;2.80;2.58;;;21.50;99.90;;;;;;5074421;28;20207;-65
2021/08/01 09:32:01;;;;;;;6.25;3.10;;;21.60;99.90;;;;;;5073950;28;20603;-64
2021/08/01 09:34:30;;;;;;;2.88;2.65;;;21.90;99.90;;;;;;5074257;28;20197;-64
2021/08/01 09:37:03;;;;;;;3.75;2.70;;;22.00;99.90;;;;;;5073961;28;20219;-66
2021/08/01 09:39:40;;;;;;;3.67;2.80;;;21.90;99.90;;;;;;5074030;28;20201;-65
2021/08/01 09:42:09;;;;;;;3.15;2.85;;;21.90;99.90;;;;;;5074068;28;20208;-64
2021/08/01 09:44:38;;;;;;;3.53;3.08;;;22.00;99.90;;;;;;5073505;28;20323;-65
2021/08/01 09:47:07;;;;;;;2.90;2.70;;;21.80;99.90;;;;;;5073817;28;20254;-64
2021/08/01 09:49:34;;;;;;;4.15;3.00;;;21.80;99.90;;;;;;5073756;28;20226;-64
2021/08/01 09:52:03;;;;;;;3.20;2.90;;;21.80;99.90;;;;;;5073842;28;20295;-64
2021/08/01 09:54:47;;;;;;;3.22;2.70;;;21.90;99.90;;;;;;5073699;28;20292;-65
2021/08/01 09:57:19;;;;;;;2.50;2.30;;;21.90;99.90;;;;;;5073818;28;20185;-65
2021/08/01 09:59:48;;;;;;;2.70;2.50;;;22.00;99.90;;;;;;5073618;28;20644;-65
2021/08/01 10:02:17;;;;;;;6.20;2.92;;;22.20;99.90;;;;;;5073648;28;20621;-64
2021/08/01 10:04:45;;;;;;;2.97;2.65;;;22.20;99.90;;;;;;5073458;28;20215;-64
2021/08/01 10:07:14;;;;;;;3.10;2.58;;;22.30;99.90;;;;;;5073100;28;20721;-65
2021/08/01 10:09:44;;;;;;;2.60;2.40;;;22.50;99.90;;;;;;5073429;28;20247;-64
2021/08/01 10:12:14;;;;;;;2.60;2.40;;;22.70;99.90;;;;;;5073400;28;20204;-65
2021/08/01 10:14:42;;;;;;;3.17;2.88;;;22.90;99.90;;;;;;5073280;28;20205;-65
2021/08/01 10:17:11;;;;;;;4.10;2.45;;;23.10;99.90;;;;;;5073279;28;20201;-63
2021/08/01 10:19:39;;;;;;;2.78;2.58;;;22.90;99.90;;;;;;5072810;28;20693;-64
2021/08/01 10:22:09;;;;;;;4.75;3.20;;;22.60;99.90;;;;;;5073246;28;20239;-64
2021/08/01 10:24:42;;;;;;;2.78;2.50;;;22.50;99.90;;;;;;5073103;28;20272;-65
2021/08/01 10:27:10;;;;;;;2.70;2.50;;;22.20;99.90;;;;;;5072990;28;20212;-64
2021/08/01 10:29:46;;;;;;;2.55;2.35;;;22.10;99.90;;;;;;5072861;28;20203;-65
2021/08/01 10:32:16;;;;;;;2.47;2.28;;;22.00;99.90;;;;;;5072962;28;20386;-64
2021/08/01 10:34:47;;;;;;;4.03;2.80;;;22.10;99.90;;;;;;5072934;28;20613;-64
2021/08/01 10:37:22;;;;;;;3.08;2.53;;;22.20;99.90;;;;;;5072993;28;20219;-65
2021/08/01 10:39:50;;;;;;;2.83;2.53;;;22.30;99.90;;;;;;5072772;28;20196;-64
2021/08/01 10:42:19;;;;;;;3.40;2.90;;;22.40;99.90;;;;;;5072826;28;20215;-64
2021/08/01 10:44:48;;;;;;;4.18;2.70;;;22.40;99.90;;;;;;5072414;28;20228;-65
2021/08/01 10:47:17;;;;;;;3.25;2.47;;;22.40;99.90;;;;;;5072199;28;20222;-66
2021/08/01 10:49:47;;;;;;;3.45;2.60;;;22.30;99.90;;;;;;5072242;28;20657;-64
2021/08/01 10:52:18;;;;;;;4.10;2.80;;;22.20;99.90;;;;;;5072370;28;20211;-65
2021/08/01 10:54:54;;;;;;;3.13;2.83;;;21.90;99.90;;;;;;5072470;28;20288;-65
2021/08/01 10:57:22;;;;;;;4.15;3.00;;;21.70;99.90;;;;;;5072250;28;20200;-64
2021/08/01 11:00:09;;;;;;;3.15;2.90;;;21.50;99.90;;;;;;5072426;28;20295;-64
2021/08/01 11:02:37;;;;;;;3.38;2.80;;;21.30;99.90;;;;;;5072610;28;20191;-64
2021/08/01 11:05:35;;;;;;;3.90;2.55;;;21.20;99.90;;;;;;5072229;28;20227;-64
2021/08/01 11:08:05;;;;;;;4.43;3.50;;;20.90;99.90;;;;;;5072479;28;20295;-64
2021/08/01 11:10:33;;;;;;;4.82;3.33;;;20.80;99.90;;;;;;5072350;28;20203;-65
2021/08/01 11:13:38;;;;;;;3.85;3.45;;;20.60;99.90;;;;;;5072650;28;20196;-64
2021/08/01 11:16:10;;;;;;;4.28;3.35;;;20.40;99.90;;;;;;5072994;28;20250;-64
2021/08/01 11:18:40;;;;;;;6.05;3.97;;;20.30;99.90;;;;;;5072495;28;20184;-66
2021/08/01 11:21:10;;;;;;;4.25;3.67;;;20.30;99.90;;;;;;5072970;28;20300;-65
2021/08/01 11:24:07;;;;;;;4.55;4.00;;;20.50;99.90;;;;;;5074757;28;20619;-65
2021/08/01 11:26:36;;;;;;;5.30;4.30;;;20.60;99.90;;;;;;5074964;28;20625;-64
2021/08/01 11:29:07;;;;;;;4.07;3.60;;;20.90;99.90;;;;;;5071792;28;20231;-65
2021/08/01 11:31:37;;;;;;;4.20;3.80;;;21.20;99.90;;;;;;5072280;28;20276;-66
2021/08/01 11:34:20;;;;;;;3.97;3.58;;;21.60;99.90;;;;;;5072216;28;20185;-64
2021/08/01 11:36:49;;;;;;;4.40;4.00;;;22.00;99.90;;;;;;5071919;28;20189;-64
2021/08/01 11:39:17;;;;;;;4.00;3.70;;;22.00;99.90;;;;;;5072102;28;20227;-65
2021/08/01 11:41:48;;;;;;;4.35;3.95;;;22.00;99.90;;;;;;5072081;28;20231;-66
2021/08/01 11:44:20;;;;;;;4.07;3.67;;;22.10;99.90;;;;;;5071596;28;20233;-64
2021/08/01 11:47:11;;;;;;;4.30;3.75;;;22.10;99.90;;;;;;5071554;28;20290;-66
2021/08/01 11:49:47;;;;;;;5.63;3.60;;;22.20;99.90;;;;;;5071732;28;20264;-65
2021/08/01 11:52:21;;;;;;;5.28;4.38;;;22.30;99.90;;;;;;5071849;28;20201;-64
2021/08/01 11:54:55;;;;;;;4.18;3.70;;;22.20;99.90;;;;;;5071825;28;20194;-64
2021/08/01 11:57:28;;;;;;;5.07;3.88;;;22.10;99.90;;;;;;5071861;28;20556;-64
2021/08/01 11:59:57;;;;;;;4.45;4.05;;;21.80;99.90;;;;;;5074002;28;20215;-64
2021/08/01 12:02:27;;;;;;;4.88;3.83;;;21.70;99.90;;;;;;5075400;28;20201;-65
2021/08/01 12:04:57;;;;;;;4.38;3.88;;;21.90;99.90;;;;;;5075268;28;20295;-65
2021/08/01 12:07:40;;;;;;;6.38;3.85;;;22.10;99.90;;;;;;5075627;28;20291;-64
2021/08/01 12:10:23;;;;;;;4.40;4.00;;;22.10;99.90;;;;;;5075646;28;20268;-64
2021/08/01 12:12:53;;;;;;;4.47;4.00;;;22.30;99.90;;;;;;5075498;28;20702;-65
2021/08/01 12:15:22;;;;;;;6.32;3.88;;;22.30;99.90;;;;;;5075418;28;20204;-64
2021/08/01 12:17:51;;;;;;;6.38;4.10;;;22.40;99.90;;;;;;5075485;28;20224;-64
2021/08/01 12:20:30;;;;;;;4.30;3.90;;;22.60;99.90;;;;;;5074847;28;20292;-64
2021/08/01 12:22:58;;;;;;;4.15;3.42;;;22.60;99.90;;;;;;5075288;28;20188;-64
2021/08/01 12:25:26;;;;;;;4.82;3.92;;;22.70;99.90;;;;;;5074980;28;20203;-64
2021/08/01 12:27:55;;;;;;;4.35;3.78;;;22.70;99.90;;;;;;5075132;28;20221;-64
2021/08/01 12:30:23;;;;;;;4.80;4.35;;;22.90;99.90;;;;;;5074876;28;20620;-63
2021/08/01 12:32:53;;;;;;;5.10;4.03;;;22.80;99.90;;;;;;5075212;28;20224;-65
2021/08/01 12:35:23;;;;;;;4.63;3.65;;;22.60;99.90;;;;;;5075067;28;20309;-66
2021/08/01 12:37:57;;;;;;;4.82;3.70;;;22.50;99.90;;;;;;5075454;28;20202;-65
2021/08/01 12:40:32;;;;;;;4.20;3.90;;;22.40;99.90;;;;;;5075491;28;20269;-64
2021/08/01 12:43:03;;;;;;;4.80;4.00;;;22.60;99.90;;;;;;5075133;28;20187;-64
2021/08/01 12:45:35;;;;;;;4.28;3.22;;;22.70;99.90;;;;;;5074689;28;20239;-64
2021/08/01 12:48:06;;;;;;;5.03;3.97;;;22.90;99.90;;;;;;5074946;28;20220;-65
2021/08/01 12:50:35;;;;;;;4.13;3.08;;;23.00;99.90;;;;;;5074495;28;20616;-64
2021/08/01 12:53:04;;;;;;;5.45;3.90;;;22.90;99.90;;;;;;5074983;28;20258;-64
2021/08/01 12:55:32;;;;;;;5.32;3.75;;;22.90;99.90;;;;;;5075044;28;20211;-65
2021/08/01 12:58:05;;;;;;;3.88;3.58;;;22.80;99.90;;;;;;5075027;28;20201;-64
2021/08/01 13:00:34;;;;;;;4.68;3.72;;;22.70;99.90;;;;;;5074543;28;20216;-65
2021/08/01 13:03:06;;;;;;;4.10;3.70;;;22.80;99.90;;;;;;5074622;28;20220;-64